Time;durP1;ratioP1;P1;durP2;ratioP2;P2;SDS_P1;SDS_P2;PMS_P1;PMS_P2;Temp;Humidity;BMP_temperature;BMP_pressure;BME280_temperature;BME280_humidity;BME280_pressure;Samples;Min_cycle;Max_cycle;Signal;HPM_P1;HPM_P2
2022/05/06 00:02:07;;;;;;;33.45;19.52;;;10.80;99.90;;;;;;5024919;28;20060;-80
2022/05/06 00:04:33;;;;;;;30.00;18.30;;;10.80;99.90;;;;;;5042257;28;20048;-80
2022/05/06 00:06:59;;;;;;;31.33;18.83;;;10.80;99.90;;;;;;5032322;28;20041;-81
2022/05/06 00:09:24;;;;;;;35.58;20.55;;;10.70;99.90;;;;;;5035818;28;20056;-80
2022/05/06 00:11:51;;;;;;;34.47;21.05;;;10.70;99.90;;;;;;5040013;28;20440;-80
2022/05/06 00:14:18;;;;;;;35.03;20.95;;;10.70;99.90;;;;;;5036735;28;20072;-80
2022/05/06 00:16:43;;;;;;;33.92;20.52;;;10.60;99.90;;;;;;5048869;28;20102;-80
2022/05/06 00:19:09;;;;;;;38.08;21.63;;;10.60;99.90;;;;;;5061251;28;20036;-81
2022/05/06 00:21:35;;;;;;;35.65;21.55;;;10.60;99.90;;;;;;5027500;28;20029;-80
2022/05/06 00:24:02;;;;;;;33.60;20.92;;;10.60;99.90;;;;;;5019911;28;20060;-80
2022/05/06 00:26:28;;;;;;;35.47;20.65;;;10.60;99.90;;;;;;5050693;28;20064;-81
2022/05/06 00:28:53;;;;;;;31.85;19.83;;;10.50;99.90;;;;;;5023163;28;20045;-80
2022/05/06 00:31:19;;;;;;;35.05;19.80;;;10.50;99.90;;;;;;5039894;28;20048;-80
2022/05/06 00:33:44;;;;;;;28.80;18.67;;;10.50;99.90;;;;;;5062608;28;20036;-81
2022/05/06 00:36:10;;;;;;;38.58;20.42;;;10.50;99.90;;;;;;5056815;28;20448;-80
2022/05/06 00:38:36;;;;;;;36.10;19.77;;;10.50;99.90;;;;;;5050249;28;20037;-80
2022/05/06 00:41:01;;;;;;;34.72;20.45;;;10.50;99.90;;;;;;5049931;28;20444;-80
2022/05/06 00:43:30;;;;;;;28.67;18.50;;;10.50;99.90;;;;;;5043014;28;20049;-81
2022/05/06 00:45:59;;;;;;;36.50;19.60;;;10.50;99.90;;;;;;5064165;28;20044;-81
2022/05/06 00:48:34;;;;;;;32.20;19.10;;;10.50;99.90;;;;;;5044076;28;20301;-80
2022/05/06 00:51:03;;;;;;;31.88;18.67;;;10.50;99.90;;;;;;5038753;28;20126;-80
2022/05/06 00:53:29;;;;;;;35.78;21.20;;;10.50;99.90;;;;;;5053083;28;20477;-80
2022/05/06 00:55:56;;;;;;;39.78;20.25;;;10.50;99.90;;;;;;5047289;28;20059;-80
2022/05/06 00:58:29;;;;;;;37.72;20.45;;;10.40;99.90;;;;;;5049427;28;20048;-80
2022/05/06 01:01:01;;;;;;;34.85;19.80;;;10.50;99.90;;;;;;5036373;28;20037;-81
2022/05/06 01:03:27;;;;;;;34.55;20.13;;;10.50;99.90;;;;;;5061793;28;20056;-80
2022/05/06 01:05:52;;;;;;;34.10;20.33;;;10.40;99.90;;;;;;5035858;28;20064;-80
2022/05/06 01:08:19;;;;;;;35.25;20.48;;;10.40;99.90;;;;;;5039437;28;20113;-80
2022/05/06 01:10:45;;;;;;;34.65;19.45;;;10.40;99.90;;;;;;5070496;28;20048;-80
2022/05/06 01:13:10;;;;;;;41.05;21.35;;;10.40;99.90;;;;;;5041227;28;20099;-81
2022/05/06 01:15:38;;;;;;;39.95;20.80;;;10.30;99.90;;;;;;5056852;28;20036;-81
2022/05/06 01:18:04;;;;;;;39.28;21.10;;;10.30;99.90;;;;;;5049665;28;20051;-81
2022/05/06 01:20:33;;;;;;;37.13;20.92;;;10.30;99.90;;;;;;5059094;28;20056;-81
2022/05/06 01:22:59;;;;;;;31.95;20.05;;;10.30;99.90;;;;;;5024196;28;20053;-80
2022/05/06 01:25:29;;;;;;;34.53;20.13;;;10.30;99.90;;;;;;5023153;28;20462;-80
2022/05/06 01:28:03;;;;;;;36.17;20.50;;;10.30;99.90;;;;;;5050916;28;20471;-80
2022/05/06 01:30:42;;;;;;;40.28;21.45;;;10.30;99.90;;;;;;5030215;28;20048;-81
2022/05/06 01:33:09;;;;;;;32.53;19.40;;;10.30;99.90;;;;;;5055922;28;20056;-81
2022/05/06 01:35:46;;;;;;;34.03;19.50;;;10.30;99.90;;;;;;5060313;28;20043;-80
2022/05/06 01:38:18;;;;;;;32.40;20.85;;;10.30;99.90;;;;;;5029983;28;20045;-80
2022/05/06 01:41:05;;;;;;;34.10;21.08;;;10.20;99.90;;;;;;5048569;28;21676;-80
2022/05/06 01:43:56;;;;;;;36.00;21.15;;;10.20;99.90;;;;;;5021925;28;20045;-81
2022/05/06 01:46:25;;;;;;;35.95;21.63;;;10.20;99.90;;;;;;5056766;28;20040;-80
2022/05/06 01:48:51;;;;;;;33.97;20.25;;;10.10;99.90;;;;;;5036532;28;20044;-80
2022/05/06 01:51:19;;;;;;;37.10;22.00;;;10.10;99.90;;;;;;5032684;28;20829;-81
2022/05/06 01:53:45;;;;;;;33.10;20.05;;;10.10;99.90;;;;;;5067746;28;20128;-81
2022/05/06 01:56:11;;;;;;;32.97;20.25;;;10.00;99.90;;;;;;5048019;28;20455;-80
2022/05/06 01:58:37;;;;;;;30.15;20.10;;;10.00;99.90;;;;;;5053369;28;20056;-81
2022/05/06 02:01:04;;;;;;;32.28;20.85;;;9.90;99.90;;;;;;5051868;28;20121;-81
2022/05/06 02:06:14;;;;;;;34.80;20.60;;;9.90;99.90;;;;;;5064427;28;20119;-81
2022/05/06 02:08:40;;;;;;;34.13;21.23;;;9.80;99.90;;;;;;5048687;28;20139;-81
2022/05/06 02:11:06;;;;;;;41.30;21.88;;;9.80;99.90;;;;;;5055061;28;20042;-81
2022/05/06 02:13:33;;;;;;;31.65;19.98;;;9.80;99.90;;;;;;5035491;28;20047;-80
2022/05/06 02:15:59;;;;;;;36.80;21.70;;;9.80;99.90;;;;;;5040978;28;20110;-80
2022/05/06 02:18:26;;;;;;;35.28;21.63;;;9.80;99.90;;;;;;5044688;28;20051;-81
2022/05/06 02:20:53;;;;;;;33.05;20.23;;;9.80;99.90;;;;;;5045589;28;20675;-80
2022/05/06 02:23:19;;;;;;;40.85;23.00;;;9.70;99.90;;;;;;5019191;28;20125;-80
2022/05/06 02:25:45;;;;;;;36.00;21.13;;;9.70;99.90;;;;;;5037803;28;20462;-80
2022/05/06 02:28:14;;;;;;;37.22;21.35;;;9.70;99.90;;;;;;5031878;28;20051;-80
2022/05/06 02:33:25;;;;;;;38.70;21.48;;;9.60;99.90;;;;;;5065154;28;20048;-80
2022/05/06 02:35:51;;;;;;;36.22;21.00;;;9.60;99.90;;;;;;5060396;28;20052;-80
2022/05/06 02:38:18;;;;;;;42.10;22.20;;;9.60;99.90;;;;;;5036452;28;20080;-80
2022/05/06 02:40:44;;;;;;;36.70;20.60;;;9.50;99.90;;;;;;5041670;28;20398;-80
2022/05/06 02:43:10;;;;;;;36.67;20.75;;;9.50;99.90;;;;;;5047712;28;20037;-80
2022/05/06 02:45:35;;;;;;;29.95;18.88;;;9.40;99.90;;;;;;5047022;28;20520;-80
2022/05/06 02:48:02;;;;;;;33.22;18.52;;;9.30;99.90;;;;;;5028452;28;20037;-80
2022/05/06 02:50:28;;;;;;;33.80;19.17;;;9.30;99.90;;;;;;5035536;28;20049;-80
2022/05/06 02:52:54;;;;;;;38.08;21.23;;;9.30;99.90;;;;;;5045260;28;20076;-80
2022/05/06 02:55:20;;;;;;;36.17;21.00;;;9.30;99.90;;;;;;5047275;28;20375;-80
2022/05/06 02:57:46;;;;;;;34.05;20.85;;;9.40;99.90;;;;;;5043034;28;20045;-80
2022/05/06 03:00:12;;;;;;;36.15;19.17;;;9.40;99.90;;;;;;5029509;28;20061;-80
2022/05/06 03:02:38;;;;;;;31.48;19.23;;;9.30;99.90;;;;;;5040360;28;20072;-79
2022/05/06 03:05:04;;;;;;;31.73;18.30;;;9.30;99.90;;;;;;5028967;28;20563;-79
2022/05/06 03:07:29;;;;;;;35.72;19.95;;;9.30;99.90;;;;;;5040650;28;20133;-78
2022/05/06 03:09:55;;;;;;;41.05;21.10;;;9.30;99.90;;;;;;5029276;28;20646;-78
2022/05/06 03:12:26;;;;;;;34.30;20.10;;;9.40;99.90;;;;;;5054785;28;20519;-79
2022/05/06 03:14:53;;;;;;;38.95;22.27;;;9.30;99.90;;;;;;5047455;28;20125;-79
2022/05/06 03:17:19;;;;;;;31.73;19.73;;;9.30;99.90;;;;;;5030454;28;20103;-80
2022/05/06 03:19:44;;;;;;;33.67;19.75;;;9.30;99.90;;;;;;5058611;28;20049;-79
2022/05/06 03:22:10;;;;;;;36.22;21.52;;;9.30;99.90;;;;;;5044995;28;20044;-79
2022/05/06 03:24:35;;;;;;;35.67;22.23;;;9.30;99.90;;;;;;5054498;28;20088;-79
2022/05/06 03:27:01;;;;;;;39.20;22.67;;;9.30;99.90;;;;;;5042517;28;20098;-79
2022/05/06 03:29:27;;;;;;;39.40;22.92;;;9.30;99.90;;;;;;5046025;28;20758;-79
2022/05/06 03:31:53;;;;;;;42.40;23.17;;;9.30;99.90;;;;;;5060388;28;20041;-79
2022/05/06 03:34:20;;;;;;;48.40;24.85;;;9.30;99.90;;;;;;5053257;28;20041;-79
2022/05/06 03:36:46;;;;;;;40.22;23.80;;;9.30;99.90;;;;;;5034635;28;20371;-79
2022/05/06 03:39:12;;;;;;;39.10;22.75;;;9.30;99.90;;;;;;5053707;28;20051;-79
2022/05/06 03:41:38;;;;;;;40.83;23.30;;;9.30;99.90;;;;;;5050416;28;20044;-79
2022/05/06 03:44:06;;;;;;;40.08;22.63;;;9.30;99.90;;;;;;5032454;28;20052;-79
2022/05/06 03:46:33;;;;;;;42.28;24.13;;;9.30;99.90;;;;;;5043399;28;20051;-79
2022/05/06 03:49:01;;;;;;;51.88;25.55;;;9.30;99.90;;;;;;5053763;28;20361;-79
2022/05/06 03:51:28;;;;;;;42.08;24.23;;;9.30;99.90;;;;;;5029482;28;20124;-79
2022/05/06 03:53:56;;;;;;;46.50;25.55;;;9.30;99.90;;;;;;5046603;28;20041;-79
2022/05/06 03:56:24;;;;;;;49.72;27.65;;;9.30;99.90;;;;;;5069581;28;20037;-79
2022/05/06 03:58:53;;;;;;;88.88;28.58;;;9.30;99.90;;;;;;5059583;28;20049;-82
2022/05/06 04:01:19;;;;;;;73.93;28.92;;;9.40;99.90;;;;;;5047182;28;20135;-82
2022/05/06 04:03:48;;;;;;;191.63;36.28;;;9.40;99.90;;;;;;5069777;28;20525;-79
2022/05/06 04:06:14;;;;;;;51.05;26.65;;;9.40;99.90;;;;;;5049519;28;20040;-79
2022/05/06 04:08:41;;;;;;;65.30;30.50;;;9.40;99.90;;;;;;5064601;28;20068;-79
2022/05/06 04:11:10;;;;;;;63.58;31.60;;;9.50;99.90;;;;;;5040365;28;20116;-79
2022/05/06 04:13:36;;;;;;;59.47;30.52;;;9.60;99.90;;;;;;5049700;28;20065;-79
2022/05/06 04:16:02;;;;;;;64.38;31.15;;;9.60;99.90;;;;;;5033932;28;20723;-79
2022/05/06 04:18:28;;;;;;;106.20;31.27;;;9.70;99.90;;;;;;5064052;28;20446;-80
2022/05/06 04:23:38;;;;;;;76.22;28.50;;;9.70;99.90;;;;;;5049181;28;20048;-79
2022/05/06 04:26:06;;;;;;;54.72;28.10;;;9.80;99.90;;;;;;5041906;28;20048;-80
2022/05/06 04:28:32;;;;;;;67.05;26.70;;;9.80;99.90;;;;;;5027825;28;20045;-80
2022/05/06 04:31:00;;;;;;;58.17;27.50;;;9.80;99.90;;;;;;5052886;28;20102;-80
2022/05/06 04:33:27;;;;;;;72.55;27.35;;;9.90;99.90;;;;;;5044675;28;20044;-79
2022/05/06 04:35:53;;;;;;;58.33;27.77;;;9.90;99.90;;;;;;5047115;28;20149;-80
2022/05/06 04:38:20;;;;;;;79.93;28.98;;;10.00;99.90;;;;;;5054249;28;20040;-80
2022/05/06 04:40:45;;;;;;;53.53;26.17;;;10.00;99.90;;;;;;5055209;28;20099;-79
2022/05/06 04:43:12;;;;;;;60.13;28.40;;;9.90;99.90;;;;;;5035985;28;20479;-79
2022/05/06 04:45:42;;;;;;;80.35;29.00;;;10.00;99.90;;;;;;5033116;28;20060;-79
2022/05/06 04:48:08;;;;;;;55.25;28.42;;;10.00;99.90;;;;;;5032223;28;20127;-79
2022/05/06 04:50:36;;;;;;;49.80;27.88;;;10.10;99.90;;;;;;5044766;28;20137;-80
2022/05/06 04:53:02;;;;;;;60.65;29.58;;;10.10;99.90;;;;;;5049420;28;20484;-80
2022/05/06 04:55:28;;;;;;;120.90;34.10;;;10.20;99.90;;;;;;5036579;28;20053;-79
2022/05/06 04:57:53;;;;;;;58.78;29.67;;;10.20;99.90;;;;;;5032848;28;20387;-79
2022/05/06 05:00:22;;;;;;;70.22;29.92;;;10.30;99.90;;;;;;5028674;28;20456;-79
2022/05/06 05:02:48;;;;;;;66.10;32.30;;;10.30;99.90;;;;;;5030233;28;20585;-79
2022/05/06 05:05:15;;;;;;;82.50;33.17;;;10.40;99.90;;;;;;5038421;28;20219;-80
2022/05/06 05:07:41;;;;;;;55.63;28.73;;;10.40;99.90;;;;;;5035828;28;20045;-80
2022/05/06 05:10:08;;;;;;;75.32;32.35;;;10.40;99.90;;;;;;5040005;28;20056;-79
2022/05/06 05:12:35;;;;;;;43.53;23.90;;;10.50;99.90;;;;;;5045488;28;20055;-79
2022/05/06 05:15:01;;;;;;;41.15;22.38;;;10.50;99.90;;;;;;5012570;28;20037;-79
2022/05/06 05:17:26;;;;;;;42.45;22.58;;;10.50;99.90;;;;;;5027358;28;20060;-79
2022/05/06 05:19:52;;;;;;;39.72;21.65;;;10.50;99.90;;;;;;5046420;28;20513;-79
2022/05/06 05:22:18;;;;;;;42.40;21.08;;;10.50;99.90;;;;;;5012741;28;20132;-79
2022/05/06 05:24:44;;;;;;;94.45;27.30;;;10.50;99.90;;;;;;5050063;28;20565;-79
2022/05/06 05:27:10;;;;;;;45.85;24.42;;;10.40;99.90;;;;;;5035528;28;20045;-80
2022/05/06 05:29:35;;;;;;;215.65;31.38;;;10.40;99.90;;;;;;5030151;28;20045;-79
2022/05/06 05:32:01;;;;;;;45.75;24.45;;;10.40;99.90;;;;;;5043694;28;20045;-79
2022/05/06 05:34:26;;;;;;;55.00;24.75;;;10.50;99.90;;;;;;5049966;28;20132;-79
2022/05/06 05:36:52;;;;;;;46.83;23.88;;;10.40;99.90;;;;;;5043910;28;20041;-80
2022/05/06 05:39:18;;;;;;;57.13;23.02;;;10.50;99.90;;;;;;5029836;28;20069;-78
2022/05/06 05:41:43;;;;;;;46.65;23.55;;;10.60;99.90;;;;;;5040390;28;20070;-79
2022/05/06 05:49:38;;;;;;;44.75;23.75;;;10.60;99.90;;;;;;5049736;28;20056;-80
2022/05/06 05:52:04;;;;;;;46.40;23.15;;;10.80;99.90;;;;;;5032279;28;20413;-80
2022/05/06 05:54:29;;;;;;;45.95;23.60;;;10.70;99.90;;;;;;5030439;28;20044;-80
2022/05/06 05:56:55;;;;;;;99.60;26.13;;;10.70;99.90;;;;;;5029683;28;20420;-80
2022/05/06 05:59:22;;;;;;;110.15;26.33;;;10.80;99.90;;;;;;5013940;28;20053;-79
2022/05/06 06:01:49;;;;;;;67.10;25.48;;;10.70;99.90;;;;;;5041593;28;20057;-79
2022/05/06 06:04:15;;;;;;;48.28;25.40;;;10.70;99.90;;;;;;5046483;28;20080;-80
2022/05/06 06:06:41;;;;;;;61.75;27.25;;;10.70;99.90;;;;;;5034328;28;20511;-79
2022/05/06 06:09:08;;;;;;;48.45;25.38;;;10.70;99.90;;;;;;5045201;28;20049;-80
2022/05/06 06:11:35;;;;;;;54.83;28.42;;;10.70;99.90;;;;;;5031868;28;20082;-79
2022/05/06 06:14:01;;;;;;;47.22;26.67;;;10.70;99.90;;;;;;5037273;28;20067;-80
2022/05/06 06:16:26;;;;;;;46.88;26.67;;;10.80;99.90;;;;;;5034957;28;20099;-80
2022/05/06 06:18:52;;;;;;;45.40;25.80;;;10.90;99.90;;;;;;5029647;28;20088;-80
2022/05/06 06:21:18;;;;;;;50.70;26.92;;;10.90;99.90;;;;;;5011832;28;20404;-80
2022/05/06 06:23:43;;;;;;;46.25;27.02;;;10.90;99.90;;;;;;5026972;28;20049;-80
2022/05/06 06:26:09;;;;;;;49.53;27.00;;;10.90;99.90;;;;;;5038633;28;20077;-81
2022/05/06 06:28:35;;;;;;;50.47;28.13;;;10.90;99.90;;;;;;5052467;28;20037;-81
2022/05/06 06:31:00;;;;;;;50.72;27.10;;;11.00;99.90;;;;;;5032946;28;20040;-81
2022/05/06 06:33:26;;;;;;;46.47;25.67;;;11.00;99.90;;;;;;5047081;28;20110;-80
2022/05/06 06:35:51;;;;;;;45.88;26.13;;;11.00;99.90;;;;;;5035313;28;20143;-80
2022/05/06 06:38:17;;;;;;;45.65;25.95;;;11.00;99.90;;;;;;5029210;28;20131;-79
2022/05/06 06:40:43;;;;;;;43.35;26.60;;;11.10;99.90;;;;;;5057854;28;20429;-79
2022/05/06 06:43:09;;;;;;;45.28;24.90;;;11.10;99.90;;;;;;5064082;28;20071;-79
2022/05/06 06:45:36;;;;;;;47.42;26.85;;;11.20;99.90;;;;;;5052095;28;20124;-79
2022/05/06 06:48:02;;;;;;;42.97;25.15;;;11.30;99.90;;;;;;5054757;28;20135;-77
2022/05/06 06:50:28;;;;;;;43.60;25.90;;;11.40;99.90;;;;;;5057256;28;20119;-78
2022/05/06 06:52:54;;;;;;;45.38;25.45;;;11.50;99.90;;;;;;5046156;28;20248;-78
2022/05/06 06:55:20;;;;;;;39.53;24.25;;;11.50;99.90;;;;;;5052728;28;20037;-78
2022/05/06 06:57:46;;;;;;;39.50;24.08;;;11.60;99.90;;;;;;5025360;28;20080;-79
2022/05/06 07:00:12;;;;;;;38.97;23.52;;;11.60;99.90;;;;;;5039165;28;20072;-79
2022/05/06 07:02:42;;;;;;;38.58;23.05;;;11.70;99.90;;;;;;5043982;28;20759;-79
2022/05/06 07:05:08;;;;;;;43.00;26.40;;;11.80;99.90;;;;;;5044345;28;20128;-80
2022/05/06 07:13:02;;;;;;;35.80;21.85;;;12.10;99.90;;;;;;5064178;28;20566;-79
2022/05/06 07:15:29;;;;;;;34.78;21.85;;;12.20;99.90;;;;;;5044996;28;20132;-80
2022/05/06 07:17:56;;;;;;;34.50;21.77;;;12.20;99.90;;;;;;5040878;28;20068;-78
2022/05/06 07:20:21;;;;;;;38.90;21.15;;;12.20;99.90;;;;;;5021358;28;20554;-78
2022/05/06 07:22:47;;;;;;;31.17;20.20;;;12.30;99.90;;;;;;5042397;28;20129;-79
2022/05/06 07:25:12;;;;;;;32.72;19.92;;;12.30;99.90;;;;;;5060221;28;20037;-79
2022/05/06 07:27:38;;;;;;;30.25;19.33;;;12.30;99.90;;;;;;5034197;28;20429;-79
2022/05/06 07:30:06;;;;;;;29.42;18.95;;;12.40;99.90;;;;;;5054499;28;20041;-78
2022/05/06 07:32:32;;;;;;;27.50;17.73;;;12.50;99.90;;;;;;5038573;28;20091;-79
2022/05/06 07:34:58;;;;;;;26.77;16.90;;;12.50;99.90;;;;;;5018540;28;20474;-79
2022/05/06 07:37:23;;;;;;;25.42;16.38;;;12.50;99.90;;;;;;5047199;28;20060;-77
2022/05/06 07:39:49;;;;;;;26.13;16.30;;;12.70;99.90;;;;;;5048545;28;20049;-79
2022/05/06 07:42:14;;;;;;;20.88;14.57;;;12.80;99.90;;;;;;5029588;28;20544;-81
2022/05/06 07:44:40;;;;;;;22.40;15.30;;;12.80;99.90;;;;;;5010163;28;20053;-78
2022/05/06 07:47:06;;;;;;;22.30;14.07;;;12.80;99.90;;;;;;5026245;28;20072;-79
2022/05/06 07:49:31;;;;;;;18.90;13.85;;;12.80;99.90;;;;;;5048838;28;20091;-79
2022/05/06 07:51:57;;;;;;;18.40;13.13;;;12.80;99.90;;;;;;5034026;28;20117;-80
2022/05/06 07:54:23;;;;;;;19.30;13.10;;;12.80;99.90;;;;;;5012011;28;20045;-79
2022/05/06 07:56:48;;;;;;;19.73;13.07;;;12.90;99.90;;;;;;5059295;28;20372;-80
2022/05/06 07:59:14;;;;;;;19.42;13.32;;;13.00;99.90;;;;;;5061386;28;20040;-79
2022/05/06 08:04:32;;;;;;;22.25;13.70;;;13.20;99.90;;;;;;5025256;28;20148;-79
2022/05/06 08:06:59;;;;;;;21.23;14.25;;;13.20;99.90;;;;;;5022057;28;20051;-80
2022/05/06 08:09:25;;;;;;;21.48;13.18;;;13.30;99.90;;;;;;5026018;28;20056;-81
2022/05/06 08:11:51;;;;;;;18.10;12.32;;;13.40;99.90;;;;;;5023590;28;20266;-81
2022/05/06 08:14:17;;;;;;;18.15;12.07;;;13.50;99.90;;;;;;5047352;28;20068;-81
2022/05/06 08:16:44;;;;;;;17.27;12.52;;;13.60;99.90;;;;;;5047959;28;20045;-80
2022/05/06 08:19:09;;;;;;;18.20;12.27;;;13.70;99.90;;;;;;5045208;28;20170;-81
2022/05/06 08:21:36;;;;;;;17.08;10.50;;;13.70;99.90;;;;;;5053983;28;20128;-80
2022/05/06 08:24:02;;;;;;;15.43;11.25;;;13.80;99.90;;;;;;5029543;28;20507;-81
2022/05/06 08:26:27;;;;;;;13.35;9.63;;;13.90;99.90;;;;;;5029622;28;20420;-80
2022/05/06 08:28:53;;;;;;;12.25;8.50;;;13.90;99.90;;;;;;5035440;28;20151;-80
2022/05/06 08:31:20;;;;;;;12.40;9.02;;;14.00;99.90;;;;;;5046173;28;20044;-80
2022/05/06 08:33:45;;;;;;;12.32;9.35;;;14.00;99.90;;;;;;5048948;28;20514;-80
2022/05/06 08:36:11;;;;;;;12.10;8.77;;;14.10;99.90;;;;;;5068179;28;20064;-80
2022/05/06 08:38:37;;;;;;;11.88;9.23;;;14.20;99.90;;;;;;5039481;28;20385;-80
2022/05/06 08:41:03;;;;;;;11.48;8.77;;;14.30;99.90;;;;;;5050836;28;20056;-80
2022/05/06 08:43:28;;;;;;;12.70;8.55;;;14.40;99.90;;;;;;5052089;28;20460;-80
2022/05/06 08:51:39;;;;;;;17.98;10.77;;;14.60;99.90;;;;;;5065105;28;20492;-80
2022/05/06 08:54:05;;;;;;;13.32;9.32;;;14.70;99.90;;;;;;5050577;28;20102;-80
2022/05/06 08:56:31;;;;;;;13.70;9.77;;;14.70;99.90;;;;;;5069411;28;20044;-81
2022/05/06 08:59:00;;;;;;;18.83;10.25;;;14.70;99.90;;;;;;5050069;28;20040;-81
2022/05/06 09:01:25;;;;;;;13.07;9.50;;;14.80;99.90;;;;;;5064240;28;20400;-80
2022/05/06 09:03:51;;;;;;;12.77;8.70;;;14.80;99.90;;;;;;5032874;28;20071;-80
2022/05/06 09:06:27;;;;;;;11.98;9.25;;;14.90;99.90;;;;;;5036741;28;20461;-81
2022/05/06 09:08:55;;;;;;;12.45;8.27;;;15.00;99.90;;;;;;5012545;28;20057;-81
2022/05/06 09:14:07;;;;;;;10.57;7.45;;;15.10;99.90;;;;;;5052485;28;20049;-79
2022/05/06 09:16:44;;;;;;;9.75;7.70;;;15.20;99.90;;;;;;5037788;28;20083;-80
2022/05/06 09:19:25;;;;;;;9.25;6.80;;;15.20;99.90;;;;;;5032536;28;20106;-80
2022/05/06 09:22:17;;;;;;;8.68;6.10;;;15.30;99.90;;;;;;5032400;28;20365;-81
2022/05/06 09:24:47;;;;;;;8.90;5.88;;;15.30;99.90;;;;;;5046956;28;20190;-81
2022/05/06 09:27:15;;;;;;;5.80;5.00;;;15.30;99.90;;;;;;5041886;28;20406;-80
2022/05/06 09:29:48;;;;;;;8.30;5.00;;;15.40;99.90;;;;;;5046481;28;20106;-80
2022/05/06 09:32:16;;;;;;;6.82;4.53;;;15.50;99.90;;;;;;5046665;28;20044;-80
2022/05/06 09:34:42;;;;;;;6.68;5.15;;;15.50;99.90;;;;;;5026262;28;20067;-79
2022/05/06 09:37:08;;;;;;;7.85;6.10;;;15.50;99.90;;;;;;5047516;28;20260;-79
2022/05/06 09:39:38;;;;;;;9.05;6.28;;;15.60;99.90;;;;;;5035689;28;20434;-80
2022/05/06 09:42:05;;;;;;;9.05;6.80;;;15.60;99.90;;;;;;5050993;28;20041;-80
2022/05/06 09:44:32;;;;;;;8.52;6.30;;;15.70;99.90;;;;;;5030502;28;20145;-83
2022/05/06 09:47:12;;;;;;;8.77;6.00;;;15.80;99.90;;;;;;5016781;28;20041;-83
2022/05/06 09:49:42;;;;;;;9.13;5.80;;;15.90;99.90;;;;;;5036928;28;20125;-82
2022/05/06 09:52:09;;;;;;;9.38;6.45;;;16.00;99.90;;;;;;5039063;28;20397;-81
2022/05/06 09:54:35;;;;;;;6.90;5.40;;;16.30;99.90;;;;;;5045436;28;20419;-83
2022/05/06 09:57:06;;;;;;;5.93;4.40;;;16.40;99.90;;;;;;5051295;28;20074;-82
2022/05/06 09:59:32;;;;;;;6.45;4.78;;;16.60;99.90;;;;;;5061693;28;20041;-82
2022/05/06 10:01:58;;;;;;;6.30;4.43;;;16.70;99.90;;;;;;5052588;28;20487;-81
2022/05/06 10:04:24;;;;;;;6.70;4.85;;;16.80;99.90;;;;;;5043584;28;20464;-81
2022/05/06 10:06:50;;;;;;;8.18;5.03;;;16.90;99.90;;;;;;5038809;28;20064;-81
2022/05/06 10:09:20;;;;;;;7.72;4.82;;;17.00;99.90;;;;;;5056004;28;21069;-84
2022/05/06 10:11:46;;;;;;;7.22;4.70;;;17.00;99.90;;;;;;5056516;28;20047;-81
2022/05/06 10:14:14;;;;;;;6.32;4.35;;;17.10;99.90;;;;;;5029695;28;20060;-81
2022/05/06 10:16:41;;;;;;;48.67;6.32;;;17.20;99.90;;;;;;5030190;28;20065;-82
2022/05/06 10:19:38;;;;;;;9.43;4.68;;;17.20;99.90;;;;;;5031809;28;20384;-82
2022/05/06 10:22:05;;;;;;;8.15;4.65;;;17.40;99.90;;;;;;5040627;28;20053;-81
2022/05/06 10:24:52;;;;;;;7.15;5.35;;;17.50;99.90;;;;;;5046746;28;20037;-82
2022/05/06 10:33:15;;;;;;;9.75;5.28;;;17.60;99.90;;;;;;5027496;28;20045;-81
2022/05/06 10:35:46;;;;;;;5.80;4.30;;;17.70;99.90;;;;;;5052733;28;20047;-81
2022/05/06 10:38:20;;;;;;;5.65;4.68;;;17.80;99.90;;;;;;5030973;28;20110;-82
2022/05/06 10:40:49;;;;;;;7.60;5.00;;;17.80;99.90;;;;;;5049401;28;20041;-85
2022/05/06 10:43:44;;;;;;;5.85;4.57;;;18.00;99.90;;;;;;5025141;28;20087;-84
2022/05/06 10:46:10;;;;;;;5.45;3.95;;;18.10;99.90;;;;;;5035562;28;20045;-81
2022/05/06 10:48:36;;;;;;;5.45;4.07;;;18.30;99.90;;;;;;5009483;28;20409;-81
2022/05/06 10:51:22;;;;;;;6.90;4.07;;;18.40;99.90;;;;;;5029992;28;20054;-81
2022/05/06 10:53:48;;;;;;;4.43;3.45;;;18.60;99.90;;;;;;5010730;28;20049;-87
2022/05/06 10:56:14;;;;;;;6.05;3.50;;;18.60;99.90;;;;;;5016321;28;20470;-81
2022/05/06 10:58:41;;;;;;;4.72;3.40;;;18.70;99.90;;;;;;5039444;28;20070;-83
2022/05/06 11:01:13;;;;;;;7.30;4.10;;;18.80;99.90;;;;;;5032330;28;20033;-82
2022/05/06 11:03:53;;;;;;;4.68;3.33;;;18.80;99.90;;;;;;5026940;28;20063;-82
2022/05/06 11:06:22;;;;;;;8.50;3.08;;;19.00;98.90;;;;;;5043587;28;20365;-82
2022/05/06 11:08:48;;;;;;;4.18;3.03;;;19.00;97.90;;;;;;5046668;28;20550;-82
2022/05/06 11:11:16;;;;;;;4.60;3.10;;;19.00;97.80;;;;;;5046754;28;20033;-83
2022/05/06 11:13:44;;;;;;;4.45;3.33;;;19.10;97.80;;;;;;5026779;28;20123;-81
2022/05/06 11:16:12;;;;;;;5.30;3.72;;;19.20;97.60;;;;;;5020846;28;20049;-81
2022/05/06 11:18:42;;;;;;;7.85;4.15;;;19.20;96.80;;;;;;5046439;28;20802;-83
2022/05/06 11:21:24;;;;;;;5.18;3.53;;;19.30;96.80;;;;;;5038034;28;20045;-81
2022/05/06 11:23:50;;;;;;;4.32;2.90;;;19.40;97.10;;;;;;5041832;28;20041;-82
2022/05/06 11:26:26;;;;;;;6.20;3.10;;;19.50;97.20;;;;;;5048296;28;20595;-82
2022/05/06 11:29:05;;;;;;;5.30;3.47;;;19.60;97.00;;;;;;5018183;28;20057;-83
2022/05/06 11:31:32;;;;;;;5.78;2.90;;;19.70;96.70;;;;;;5043187;28;20104;-81
2022/05/06 11:34:03;;;;;;;4.97;2.85;;;19.80;96.70;;;;;;5026666;28;20187;-82
2022/05/06 11:36:29;;;;;;;3.72;2.05;;;19.80;95.90;;;;;;5048015;28;20049;-82
2022/05/06 11:38:54;;;;;;;5.97;2.33;;;19.90;95.20;;;;;;5041210;28;20072;-83
2022/05/06 11:41:20;;;;;;;5.68;2.38;;;20.00;94.80;;;;;;5048504;28;20401;-82
2022/05/06 11:43:47;;;;;;;4.07;2.47;;;20.00;95.20;;;;;;5043277;28;20429;-80
2022/05/06 11:49:01;;;;;;;5.05;3.20;;;20.20;94.90;;;;;;5015649;28;20555;-82
2022/05/06 11:51:30;;;;;;;5.57;2.45;;;20.30;95.00;;;;;;5047404;28;20044;-81
2022/05/06 11:53:57;;;;;;;3.17;2.45;;;20.40;94.80;;;;;;5023826;28;20095;-82
2022/05/06 11:56:25;;;;;;;4.45;2.33;;;20.50;94.30;;;;;;5042249;28;20042;-82
2022/05/06 11:58:58;;;;;;;3.83;2.53;;;20.60;94.50;;;;;;5009410;28;20041;-81
2022/05/06 12:01:28;;;;;;;6.47;2.70;;;20.70;93.50;;;;;;5025017;28;20045;-81
2022/05/06 12:03:59;;;;;;;4.10;2.40;;;20.80;93.70;;;;;;5019442;28;20544;-83
2022/05/06 12:06:31;;;;;;;3.80;3.05;;;21.00;93.50;;;;;;5029344;28;20076;-81
2022/05/06 12:09:14;;;;;;;3.78;2.85;;;21.10;93.50;;;;;;5028194;28;20041;-81
2022/05/06 12:11:41;;;;;;;3.92;2.35;;;21.30;92.90;;;;;;5027593;28;20087;-82
2022/05/06 12:14:17;;;;;;;4.25;2.50;;;21.40;92.40;;;;;;5050641;28;20032;-82
2022/05/06 12:17:09;;;;;;;4.22;2.05;;;21.40;92.60;;;;;;5036356;28;20036;-82
2022/05/06 12:19:40;;;;;;;2.92;1.88;;;21.50;92.30;;;;;;5041054;28;20134;-82
2022/05/06 12:22:23;;;;;;;3.58;2.10;;;21.60;92.20;;;;;;5051489;28;20037;-81
2022/05/06 12:24:52;;;;;;;8.32;2.83;;;21.80;91.70;;;;;;5044837;28;20099;-83
2022/05/06 12:27:28;;;;;;;5.30;2.45;;;21.80;91.70;;;;;;5030054;28;20056;-81
2022/05/06 12:29:55;;;;;;;6.90;2.70;;;22.00;91.10;;;;;;5042957;28;20045;-83
2022/05/06 12:32:22;;;;;;;8.63;2.50;;;22.00;90.80;;;;;;5027503;28;20409;-83
2022/05/06 12:35:02;;;;;;;3.83;2.63;;;22.10;90.50;;;;;;5052333;28;20206;-82
2022/05/06 12:37:27;;;;;;;8.73;2.30;;;22.00;89.90;;;;;;5031743;28;20456;-81
2022/05/06 12:39:58;;;;;;;5.20;2.30;;;21.80;89.10;;;;;;5034154;28;20147;-81
2022/05/06 12:42:24;;;;;;;3.75;2.10;;;21.70;89.70;;;;;;5019023;28;20041;-82
2022/05/06 12:44:49;;;;;;;4.25;2.25;;;21.70;90.00;;;;;;5043829;28;20051;-81
2022/05/06 12:50:06;;;;;;;3.78;2.00;;;21.80;90.40;;;;;;5024753;28;20045;-82
2022/05/06 12:52:35;;;;;;;4.07;2.60;;;22.00;90.70;;;;;;5024337;28;20107;-83
2022/05/06 12:55:01;;;;;;;3.90;2.38;;;22.30;90.30;;;;;;5045861;28;20483;-81
2022/05/06 12:57:28;;;;;;;3.17;2.25;;;22.30;87.40;;;;;;5044204;28;20105;-82
2022/05/06 12:59:54;;;;;;;3.83;2.08;;;22.20;85.40;;;;;;5046359;28;20049;-81
2022/05/06 13:02:19;;;;;;;5.20;1.90;;;21.90;84.90;;;;;;5009598;28;20064;-81
2022/05/06 13:04:45;;;;;;;3.72;1.90;;;21.90;86.50;;;;;;5019498;28;20377;-82
2022/05/06 13:07:11;;;;;;;3.13;1.85;;;21.80;85.80;;;;;;5024217;28;20056;-81
2022/05/06 13:09:36;;;;;;;3.10;1.60;;;21.90;86.20;;;;;;5010687;28;20563;-82
2022/05/06 13:12:03;;;;;;;6.13;2.10;;;21.90;86.80;;;;;;5010439;28;20041;-83
2022/05/06 13:14:28;;;;;;;7.50;2.20;;;22.00;88.00;;;;;;5028160;28;20535;-81
2022/05/06 13:16:54;;;;;;;3.75;2.00;;;22.00;86.60;;;;;;5027098;28;20160;-81
2022/05/06 13:19:20;;;;;;;4.72;1.85;;;22.10;86.10;;;;;;5025239;28;20128;-82
2022/05/06 13:21:45;;;;;;;7.05;2.13;;;22.10;85.50;;;;;;5027657;28;20096;-83